Time;durP1;ratioP1;P1;durP2;ratioP2;P2;SDS_P1;SDS_P2;PMS_P1;PMS_P2;Temp;Humidity;BMP_temperature;BMP_pressure;BME280_temperature;BME280_humidity;BME280_pressure;Samples;Min_cycle;Max_cycle;Signal;HPM_P1;HPM_P2
2021/11/08 00:00:14;;;;;;;45.80;26.98;;;9.10;99.90;;;;;;5033475;28;20148;-84
2021/11/08 00:02:41;;;;;;;41.80;26.15;;;9.00;99.90;;;;;;5033571;28;20113;-85
2021/11/08 00:05:08;;;;;;;41.78;26.25;;;9.10;99.90;;;;;;5034684;28;20033;-84
2021/11/08 00:07:34;;;;;;;42.53;25.98;;;9.00;99.90;;;;;;5033682;28;20380;-84
2021/11/08 00:10:01;;;;;;;46.58;27.45;;;9.10;99.90;;;;;;5034782;28;20025;-85
2021/11/08 00:12:27;;;;;;;45.63;26.52;;;9.10;99.90;;;;;;5033481;28;20108;-85
2021/11/08 00:14:56;;;;;;;42.40;25.45;;;9.10;99.90;;;;;;5033242;28;20076;-85
2021/11/08 16:32:30;;;;;;;38.03;19.90;;;9.20;99.90;;;;;;4932877;28;1566932;-95
2021/11/08 16:34:56;;;;;;;41.47;21.08;;;9.20;99.90;;;;;;4967838;28;20073;-96
2021/11/08 16:37:22;;;;;;;37.10;20.30;;;9.30;99.90;;;;;;4986939;28;20018;-96
2021/11/08 16:39:48;;;;;;;35.92;21.17;;;9.30;99.90;;;;;;5007487;28;20031;-96
2021/11/08 16:42:14;;;;;;;36.05;18.40;;;9.30;99.90;;;;;;4987573;28;20092;-96
2021/11/08 16:44:42;;;;;;;52.83;24.67;;;9.30;99.90;;;;;;4988866;28;20033;-96
2021/11/08 16:47:08;;;;;;;63.80;27.90;;;9.30;99.90;;;;;;4991013;28;20025;-95
2021/11/08 16:49:37;;;;;;;76.25;33.03;;;9.20;99.90;;;;;;4991671;28;20117;-96
2021/11/08 16:54:50;;;;;;;53.33;24.17;;;9.20;99.90;;;;;;4948780;28;20056;-96
2021/11/08 16:57:19;;;;;;;45.30;22.85;;;9.10;99.90;;;;;;4950396;29;20019;-96
2021/11/08 16:59:48;;;;;;;45.38;22.20;;;9.00;99.90;;;;;;4946747;29;20032;-96
2021/11/08 17:02:17;;;;;;;35.83;21.27;;;9.00;99.90;;;;;;4949798;28;20504;-96
2021/11/08 17:04:43;;;;;;;34.90;18.80;;;9.00;99.90;;;;;;4948105;29;20032;-95
2021/11/08 17:07:10;;;;;;;31.77;15.98;;;9.00;99.90;;;;;;4944414;29;20023;-96
2021/11/08 17:09:50;;;;;;;28.30;15.77;;;9.10;99.90;;;;;;4944348;29;20485;-93
2021/11/08 17:15:00;;;;;;;27.33;15.23;;;9.10;99.90;;;;;;4960444;28;20046;-96
2021/11/08 17:17:26;;;;;;;28.40;16.58;;;9.20;99.90;;;;;;4947693;29;20057;-96
2021/11/08 17:19:52;;;;;;;45.63;25.73;;;9.20;99.90;;;;;;4946072;29;20033;-96
2021/11/08 17:22:18;;;;;;;36.58;19.88;;;9.20;99.90;;;;;;4945875;29;20074;-96
2021/11/08 17:24:45;;;;;;;32.42;17.73;;;9.20;99.90;;;;;;4947232;29;20023;-96
2021/11/08 17:27:19;;;;;;;32.92;19.15;;;9.20;99.90;;;;;;4952266;29;20127;-96
2021/11/08 17:29:45;;;;;;;41.90;27.05;;;9.20;99.90;;;;;;4940872;29;20448;-89
2021/11/08 17:32:11;;;;;;;35.10;20.45;;;9.20;99.90;;;;;;4944207;29;20027;-92
2021/11/08 17:34:37;;;;;;;27.52;16.30;;;9.10;99.90;;;;;;4940484;29;20023;-88
2021/11/08 17:37:03;;;;;;;22.90;14.77;;;9.10;99.90;;;;;;4940476;29;20031;-89
2021/11/08 17:39:29;;;;;;;24.27;15.18;;;9.20;99.90;;;;;;4940386;29;20027;-88
2021/11/08 17:41:54;;;;;;;27.15;16.88;;;9.20;99.90;;;;;;4940364;29;20035;-89
2021/11/08 17:44:20;;;;;;;27.20;15.80;;;9.20;99.90;;;;;;4940131;29;20031;-89
2021/11/08 17:46:46;;;;;;;29.23;16.52;;;9.20;99.90;;;;;;4940379;29;20039;-89
2021/11/08 17:49:12;;;;;;;38.05;22.05;;;9.20;99.90;;;;;;4940692;29;20023;-89
2021/11/08 17:51:39;;;;;;;49.85;28.13;;;9.20;99.90;;;;;;4939750;29;20366;-89
2021/11/08 17:54:05;;;;;;;50.95;28.83;;;9.20;99.90;;;;;;4939780;29;20047;-89
2021/11/08 17:56:32;;;;;;;44.63;25.27;;;9.10;99.90;;;;;;4940073;29;20020;-89
2021/11/08 17:58:57;;;;;;;42.38;23.73;;;9.00;99.90;;;;;;4939934;29;20039;-89
2021/11/08 18:01:24;;;;;;;41.28;23.02;;;9.00;99.90;;;;;;4939925;29;20601;-90
2021/11/08 18:03:51;;;;;;;32.22;18.52;;;9.00;99.90;;;;;;4939295;29;20027;-85
2021/11/08 18:06:18;;;;;;;47.17;26.73;;;9.00;99.90;;;;;;4939215;29;20613;-86
2021/11/08 18:08:45;;;;;;;51.20;28.73;;;9.00;99.90;;;;;;4939318;29;20023;-86
2021/11/08 18:11:11;;;;;;;49.20;25.83;;;9.00;99.90;;;;;;4939323;29;20031;-86
2021/11/08 18:13:37;;;;;;;58.50;32.08;;;8.90;99.90;;;;;;4938987;29;20027;-86
2021/11/08 18:16:04;;;;;;;61.83;34.35;;;8.90;99.90;;;;;;4938785;29;20113;-86
2021/11/08 18:18:30;;;;;;;62.78;34.53;;;8.90;99.90;;;;;;4938904;29;20024;-86
2021/11/08 18:21:06;;;;;;;84.53;44.22;;;8.80;99.90;;;;;;4938826;29;20028;-85
2021/11/08 18:23:38;;;;;;;71.65;37.53;;;8.80;99.90;;;;;;4956243;29;20031;-85
2021/11/08 18:28:51;;;;;;;50.35;25.85;;;8.90;99.90;;;;;;4956228;29;20090;-85
2021/11/08 18:31:18;;;;;;;59.65;27.88;;;8.80;99.90;;;;;;4939029;29;20430;-87
2021/11/08 18:33:46;;;;;;;42.13;20.90;;;8.80;99.90;;;;;;4938516;29;20430;-85
2021/11/08 18:36:14;;;;;;;30.73;17.58;;;8.80;99.90;;;;;;4938383;29;20389;-85
2021/11/08 18:38:41;;;;;;;29.60;17.45;;;8.70;99.90;;;;;;4938516;29;20027;-85
2021/11/08 18:41:08;;;;;;;33.75;18.75;;;8.70;99.90;;;;;;4938551;29;20028;-85
2021/11/08 18:43:34;;;;;;;36.45;18.52;;;8.70;99.90;;;;;;4938636;29;20028;-85
2021/11/08 18:46:00;;;;;;;42.53;22.90;;;8.70;99.90;;;;;;4955495;29;20031;-85
2021/11/08 18:48:26;;;;;;;35.92;20.23;;;8.60;99.90;;;;;;4938689;29;20470;-85
2021/11/08 18:50:55;;;;;;;37.42;21.10;;;8.60;99.90;;;;;;4955509;29;20106;-85
2021/11/08 18:53:20;;;;;;;30.77;17.33;;;8.50;99.90;;;;;;4938124;29;20051;-85
2021/11/08 18:55:47;;;;;;;34.05;17.38;;;8.50;99.90;;;;;;4955588;29;20030;-84
2021/11/08 18:58:15;;;;;;;30.67;16.35;;;8.40;99.90;;;;;;4938622;29;20055;-89
2021/11/08 19:00:48;;;;;;;33.78;18.30;;;8.40;99.90;;;;;;4939056;29;20118;-88
2021/11/08 19:03:25;;;;;;;74.60;38.35;;;8.40;99.90;;;;;;4938899;29;20042;-89
2021/11/08 19:08:58;;;;;;;75.72;37.88;;;8.30;99.90;;;;;;4956535;29;20034;-87
2021/11/08 19:11:30;;;;;;;69.47;34.17;;;8.30;99.90;;;;;;4938829;29;20466;-87
2021/11/08 19:14:01;;;;;;;45.10;23.92;;;8.30;99.90;;;;;;4938741;29;20027;-87
2021/11/08 19:16:27;;;;;;;25.80;14.80;;;8.20;99.90;;;;;;4938654;29;20029;-87
2021/11/08 19:18:54;;;;;;;26.40;16.50;;;8.20;99.90;;;;;;4938609;29;20504;-87
2021/11/08 19:21:20;;;;;;;26.52;14.55;;;8.20;99.90;;;;;;4938530;29;20031;-87
2021/11/08 19:23:46;;;;;;;31.42;16.50;;;8.10;99.90;;;;;;4939020;29;20034;-91
2021/11/08 19:26:13;;;;;;;37.22;19.05;;;8.10;99.90;;;;;;4938894;29;20023;-93
2021/11/08 19:28:39;;;;;;;30.45;16.92;;;8.10;99.90;;;;;;4938905;29;20024;-91
2021/11/08 19:31:07;;;;;;;36.17;19.42;;;8.10;99.90;;;;;;4939177;29;20525;-89
2021/11/08 19:33:38;;;;;;;32.10;18.23;;;8.00;99.90;;;;;;4939084;29;20038;-92
2021/11/08 19:38:51;;;;;;;30.33;17.83;;;8.00;99.90;;;;;;4957135;28;20061;-90
2021/11/08 19:41:17;;;;;;;36.47;20.58;;;8.00;99.90;;;;;;4942400;29;20443;-90
2021/11/08 19:43:43;;;;;;;39.05;22.15;;;8.00;99.90;;;;;;4942310;29;20031;-90
2021/11/08 19:46:09;;;;;;;38.85;23.40;;;8.00;99.90;;;;;;4942484;29;20366;-90
2021/11/08 19:48:35;;;;;;;50.78;34.45;;;8.10;99.90;;;;;;4942227;29;20097;-90
2021/11/08 19:51:03;;;;;;;47.50;31.95;;;8.10;99.90;;;;;;4959248;29;20488;-89
2021/11/08 19:53:29;;;;;;;48.92;30.35;;;8.10;99.90;;;;;;4941892;29;20055;-90
2021/11/08 19:55:56;;;;;;;42.75;26.75;;;8.10;99.90;;;;;;4942267;29;20034;-90
2021/11/08 19:58:23;;;;;;;40.38;26.83;;;8.10;99.90;;;;;;4942172;29;20023;-89
2021/11/08 20:00:50;;;;;;;38.85;23.52;;;8.10;99.90;;;;;;4942234;29;20019;-90
2021/11/08 20:03:19;;;;;;;53.05;26.42;;;8.10;99.90;;;;;;4941862;29;20035;-91
2021/11/08 20:05:45;;;;;;;49.85;25.90;;;8.10;99.90;;;;;;4942190;29;20031;-89
2021/11/08 20:08:11;;;;;;;43.90;22.92;;;8.00;99.90;;;;;;4941832;29;20031;-91
2021/11/08 20:10:39;;;;;;;35.88;19.02;;;8.00;99.90;;;;;;4941893;29;20054;-88
2021/11/08 20:15:33;;;;;;;34.47;16.65;;;8.00;99.90;;;;;;4958890;29;20023;-89
2021/11/08 20:18:00;;;;;;;29.15;16.17;;;8.00;99.90;;;;;;4941727;29;20024;-89
2021/11/08 20:20:26;;;;;;;23.83;13.90;;;8.10;99.90;;;;;;4941868;29;20023;-87
2021/11/08 20:22:52;;;;;;;28.25;13.05;;;8.10;99.90;;;;;;4941760;29;20035;-91
2021/11/08 20:25:18;;;;;;;34.53;17.60;;;8.10;99.90;;;;;;4941668;29;20130;-89
2021/11/08 20:27:44;;;;;;;31.60;16.77;;;8.10;99.90;;;;;;4941634;29;20063;-89
2021/11/08 20:30:18;;;;;;;38.90;21.50;;;8.10;99.90;;;;;;4941371;29;20058;-91
2021/11/08 20:37:52;;;;;;;25.42;13.82;;;8.10;99.90;;;;;;4958413;29;20031;-90
2021/11/08 20:40:25;;;;;;;24.95;13.95;;;8.10;99.90;;;;;;4958267;29;20020;-89
2021/11/08 20:43:10;;;;;;;26.75;14.48;;;8.10;99.90;;;;;;4941807;29;20031;-87
2021/11/08 20:46:31;;;;;;;19.92;12.52;;;8.10;99.90;;;;;;4941519;29;20046;-89
2021/11/08 20:53:47;;;;;;;21.83;12.20;;;8.00;99.90;;;;;;4957858;29;20052;-89
2021/11/08 21:01:50;;;;;;;26.95;13.23;;;8.00;99.90;;;;;;4958535;29;20034;-88
2021/11/08 21:09:26;;;;;;;25.35;12.75;;;7.90;99.90;;;;;;4958101;29;20046;-87
2021/11/08 21:14:19;;;;;;;20.30;10.75;;;8.00;99.90;;;;;;4957929;29;20062;-90
2021/11/08 21:16:49;;;;;;;22.38;11.43;;;8.00;99.90;;;;;;4940732;29;20473;-89
2021/11/08 21:19:15;;;;;;;23.67;12.15;;;8.00;99.90;;;;;;4940640;29;20059;-89
2021/11/08 21:21:40;;;;;;;24.33;12.02;;;8.10;99.90;;;;;;4940536;29;20035;-88
2021/11/08 21:24:06;;;;;;;22.15;11.80;;;8.10;99.90;;;;;;4940594;29;20031;-88
2021/11/08 21:26:34;;;;;;;22.20;11.25;;;8.10;99.90;;;;;;4940652;29;20037;-88
2021/11/08 21:40:04;;;;;;;24.75;13.38;;;8.30;99.90;;;;;;4957524;29;20050;-89
2021/11/08 21:42:30;;;;;;;27.23;13.25;;;8.30;99.90;;;;;;4957436;29;20027;-88
2021/11/08 21:44:57;;;;;;;20.23;11.35;;;8.30;99.90;;;;;;4939959;29;20056;-89
2021/11/08 21:47:25;;;;;;;22.00;12.02;;;8.20;99.90;;;;;;4957053;29;20027;-88
2021/11/08 21:49:51;;;;;;;18.10;11.00;;;8.20;99.90;;;;;;4939796;29;20565;-88
2021/11/08 21:52:18;;;;;;;20.77;11.93;;;8.10;99.90;;;;;;4939830;29;20027;-88
2021/11/08 21:54:44;;;;;;;19.85;11.25;;;8.20;99.90;;;;;;4939709;29;20121;-87
2021/11/08 21:57:11;;;;;;;21.13;11.32;;;8.20;99.90;;;;;;4939776;29;20537;-87
2021/11/08 21:59:40;;;;;;;22.77;11.05;;;8.30;99.90;;;;;;4939959;29;20027;-87
2021/11/08 22:02:06;;;;;;;18.83;10.57;;;8.30;99.90;;;;;;4939130;29;20027;-87
2021/11/08 22:04:32;;;;;;;20.75;12.27;;;8.30;99.90;;;;;;4939596;29;20388;-87
2021/11/08 22:06:58;;;;;;;22.15;12.73;;;8.30;99.90;;;;;;4939672;29;20093;-88
2021/11/08 22:09:24;;;;;;;17.23;11.43;;;8.30;99.90;;;;;;4939612;29;20118;-88
2021/11/08 22:11:51;;;;;;;24.70;12.30;;;8.30;99.90;;;;;;4956714;29;20599;-88
2021/11/08 22:14:17;;;;;;;19.92;12.10;;;8.30;99.90;;;;;;4939642;29;20019;-87
2021/11/08 22:16:43;;;;;;;18.00;11.45;;;8.30;99.90;;;;;;4939368;29;20047;-86
2021/11/08 22:19:09;;;;;;;20.63;10.82;;;8.30;99.90;;;;;;4939412;29;20134;-88
2021/11/08 22:21:36;;;;;;;20.73;11.00;;;8.20;99.90;;;;;;4939351;29;20533;-89
2021/11/08 22:24:03;;;;;;;19.60;11.55;;;8.20;99.90;;;;;;4939416;29;20030;-87
2021/11/08 22:26:29;;;;;;;18.50;10.32;;;8.20;99.90;;;;;;4939434;29;20441;-87
2021/11/08 22:28:55;;;;;;;16.83;10.23;;;8.20;99.90;;;;;;4939362;29;20031;-87
2021/11/08 22:31:21;;;;;;;23.77;10.05;;;8.20;99.90;;;;;;4939256;29;20050;-87
2021/11/08 22:33:47;;;;;;;14.15;8.73;;;8.20;99.90;;;;;;4939053;29;20035;-88
2021/11/08 22:36:17;;;;;;;18.10;9.55;;;8.30;99.90;;;;;;4939260;29;20027;-89
2021/11/08 22:38:48;;;;;;;14.45;8.25;;;8.30;99.90;;;;;;4939267;29;20433;-87
2021/11/08 22:41:15;;;;;;;14.23;7.75;;;8.30;99.90;;;;;;4939205;29;20050;-87
2021/11/08 22:43:42;;;;;;;14.30;7.82;;;8.30;99.90;;;;;;4938973;29;20035;-88
2021/11/08 22:46:08;;;;;;;11.90;7.82;;;8.30;99.90;;;;;;4939128;29;20394;-87
2021/11/08 22:48:33;;;;;;;12.95;7.47;;;8.40;99.90;;;;;;4938906;29;20098;-87
2021/11/08 22:51:00;;;;;;;11.65;7.60;;;8.40;99.90;;;;;;4939085;29;20126;-87
2021/11/08 22:53:26;;;;;;;11.88;8.00;;;8.40;99.90;;;;;;4938890;29;20402;-87
2021/11/08 22:55:52;;;;;;;16.80;9.30;;;8.40;99.90;;;;;;4939025;29;20025;-87
2021/11/08 22:58:17;;;;;;;14.55;8.85;;;8.50;99.90;;;;;;4956171;29;20027;-87
2021/11/08 23:00:54;;;;;;;18.58;9.05;;;8.50;99.90;;;;;;4938938;29;20050;-87
2021/11/08 23:03:21;;;;;;;17.88;10.07;;;8.50;99.90;;;;;;4939019;29;20037;-87
2021/11/08 23:05:47;;;;;;;15.35;10.15;;;8.50;99.90;;;;;;4956175;29;20027;-86
2021/11/08 23:08:16;;;;;;;19.95;10.98;;;8.50;99.90;;;;;;4956010;29;20055;-87
2021/11/08 23:10:42;;;;;;;17.85;11.15;;;8.40;99.90;;;;;;4955721;29;20024;-86
2021/11/08 23:13:08;;;;;;;24.25;10.48;;;8.50;99.90;;;;;;4938673;29;20458;-86
2021/11/08 23:15:34;;;;;;;13.50;8.18;;;8.50;99.90;;;;;;4942701;29;20027;-86
2021/11/08 23:18:00;;;;;;;15.85;9.15;;;8.50;99.90;;;;;;4943215;29;20552;-86
2021/11/08 23:20:26;;;;;;;15.25;9.20;;;8.40;99.90;;;;;;4942398;29;20058;-86
2021/11/08 23:22:55;;;;;;;19.00;9.25;;;8.50;99.90;;;;;;4942662;29;20474;-86
2021/11/08 23:25:21;;;;;;;15.70;8.77;;;8.40;99.90;;;;;;4942252;29;20038;-86
2021/11/08 23:27:48;;;;;;;14.98;8.65;;;8.50;99.90;;;;;;4942438;29;20134;-87
2021/11/08 23:30:14;;;;;;;14.52;8.25;;;8.40;99.90;;;;;;4942221;29;20037;-87
2021/11/08 23:32:40;;;;;;;15.38;8.85;;;8.40;99.90;;;;;;4942432;29;20035;-86
2021/11/08 23:35:08;;;;;;;17.52;9.25;;;8.40;99.90;;;;;;4942447;29;20026;-88
2021/11/08 23:37:33;;;;;;;15.10;8.23;;;8.40;99.90;;;;;;4942307;29;20019;-86
2021/11/08 23:39:59;;;;;;;13.82;7.43;;;8.40;99.90;;;;;;4942243;29;20492;-86
2021/11/08 23:42:25;;;;;;;13.05;7.55;;;8.30;99.90;;;;;;4942352;29;20035;-87
2021/11/08 23:44:51;;;;;;;10.02;6.65;;;8.20;99.90;;;;;;4941958;29;20027;-86
2021/11/08 23:47:16;;;;;;;15.55;8.00;;;8.20;99.90;;;;;;4942303;29;20063;-86
2021/11/08 23:49:43;;;;;;;13.07;8.40;;;8.20;99.90;;;;;;4942222;29;20035;-87
2021/11/08 23:52:09;;;;;;;12.20;7.55;;;8.20;99.90;;;;;;4941793;29;20027;-86
2021/11/08 23:54:35;;;;;;;10.40;6.70;;;8.20;99.90;;;;;;4941653;29;20051;-87
2021/11/08 23:57:02;;;;;;;11.52;6.50;;;8.30;99.90;;;;;;4941817;29;20019;-86
2021/11/08 23:59:28;;;;;;;11.52;7.30;;;8.30;99.90;;;;;;4942019;29;20023;-87
